createdAt,value
2022-12-19T00:00:43.407Z,38.88
2022-12-19T00:03:13.287Z,42.53
2022-12-19T00:05:44.360Z,42.83
2022-12-19T00:08:19.147Z,44.75
2022-12-19T00:10:58.482Z,37.38
2022-12-19T00:13:29.060Z,39.80
2022-12-19T00:16:07.201Z,40.40
2022-12-19T00:18:37.464Z,39.55
2022-12-19T00:21:08.968Z,43.85
2022-12-19T00:23:39.125Z,37.78
2022-12-19T00:26:17.582Z,43.17
2022-12-19T00:28:49.809Z,37.42
2022-12-19T00:31:23.741Z,41.88
2022-12-19T00:33:53.897Z,48.10
2022-12-19T00:36:25.157Z,40.83
2022-12-19T00:38:56.772Z,42.67
2022-12-19T00:41:28.393Z,42.22
2022-12-19T00:43:59.292Z,40.22
2022-12-19T00:46:32.847Z,46.05
2022-12-19T00:49:03.574Z,44.97
2022-12-19T00:51:35.337Z,44.10
2022-12-19T00:54:07.345Z,44.45
2022-12-19T00:56:38.684Z,43.45
2022-12-19T00:59:08.959Z,42.78
2022-12-19T01:01:43.552Z,37.70
2022-12-19T01:04:36.759Z,39.70
2022-12-19T01:07:08.283Z,44.17
2022-12-19T01:09:39.064Z,39.67
2022-12-19T01:12:24.494Z,40.22
2022-12-19T01:15:02.915Z,43.53
2022-12-19T01:17:43.659Z,40.15
2022-12-19T01:20:15.486Z,48.97
2022-12-19T01:22:45.328Z,40.05
2022-12-19T01:25:15.741Z,40.05
2022-12-19T01:27:45.490Z,41.33
2022-12-19T01:30:16.319Z,37.53
2022-12-19T01:32:49.275Z,40.67
2022-12-19T01:35:21.341Z,39.88
2022-12-19T01:37:55.824Z,41.60
2022-12-19T01:40:38.613Z,38.28
2022-12-19T01:43:09.328Z,37.45
2022-12-19T01:45:45.442Z,39.55
2022-12-19T01:48:24.597Z,41.38
2022-12-19T01:51:02.549Z,39.67
2022-12-19T01:53:49.029Z,35.72
2022-12-19T01:56:22.415Z,40.38
2022-12-19T01:59:05.123Z,39.38
2022-12-19T02:01:45.820Z,44.63
2022-12-19T02:04:32.346Z,38.45
2022-12-19T02:07:15.246Z,42.75
2022-12-19T02:09:47.642Z,37.13
2022-12-19T02:12:29.609Z,40.75
2022-12-19T02:15:03.197Z,39.63
2022-12-19T02:17:53.970Z,45.25
2022-12-19T02:20:56.719Z,48.40
2022-12-19T02:24:08.788Z,41.28
2022-12-19T02:26:55.123Z,42.10
2022-12-19T02:29:55.338Z,39.75
2022-12-19T02:32:36.220Z,42.40
2022-12-19T02:35:15.529Z,38.63
2022-12-19T02:37:51.143Z,39.75
2022-12-19T02:40:29.356Z,44.22
2022-12-19T02:43:02.325Z,41.97
2022-12-19T02:45:39.669Z,35.90
2022-12-19T02:48:17.612Z,39.78
2022-12-19T02:50:50.520Z,40.65
2022-12-19T02:53:24.024Z,39.83
2022-12-19T02:56:13.747Z,41.85
2022-12-19T02:58:58.271Z,41.70
2022-12-19T03:01:45.483Z,40.72
2022-12-19T03:04:30.449Z,40.63
2022-12-19T03:09:43.385Z,44.35
2022-12-19T03:12:19.383Z,45.70
2022-12-19T03:14:51.355Z,41.97
2022-12-19T03:17:22.674Z,41.47
2022-12-19T03:19:55.058Z,45.80
2022-12-19T03:22:25.342Z,48.13
2022-12-19T03:24:55.196Z,48.05
2022-12-19T03:27:30.713Z,45.83
2022-12-19T03:30:06.369Z,47.72
2022-12-19T03:32:37.353Z,53.40
2022-12-19T03:35:14.631Z,49.20
2022-12-19T03:37:45.889Z,48.42
2022-12-19T03:40:19.638Z,43.67
2022-12-19T03:43:03.951Z,41.15
2022-12-19T03:45:42.643Z,42.55
2022-12-19T03:48:17.879Z,38.72
2022-12-19T03:50:57.205Z,42.33
2022-12-19T03:53:37.855Z,47.17
2022-12-19T03:56:19.802Z,45.40
2022-12-19T03:58:55.339Z,43.97
2022-12-19T04:01:25.402Z,44.80
2022-12-19T04:03:55.606Z,49.40
2022-12-19T04:06:30.262Z,49.40
2022-12-19T04:09:01.946Z,45.53
2022-12-19T04:11:37.537Z,44.85
2022-12-19T04:14:11.530Z,46.50
2022-12-19T04:16:48.764Z,48.90
2022-12-19T04:19:23.586Z,47.95
2022-12-19T04:22:02.271Z,44.80
2022-12-19T04:24:36.510Z,47.30
2022-12-19T04:27:09.903Z,46.25
2022-12-19T04:29:41.295Z,48.88
2022-12-19T04:32:12.567Z,48.67
2022-12-19T04:34:43.176Z,51.63
2022-12-19T04:37:16.054Z,47.28
2022-12-19T04:39:45.916Z,48.22
2022-12-19T04:42:15.695Z,52.40
2022-12-19T04:44:45.475Z,46.60
2022-12-19T04:47:15.392Z,44.47
2022-12-19T04:49:45.178Z,49.92
2022-12-19T04:52:17.592Z,46.08
2022-12-19T04:54:47.396Z,45.60
2022-12-19T04:57:17.262Z,49.20
2022-12-19T04:59:47.049Z,52.40
2022-12-19T05:02:16.984Z,49.40
2022-12-19T05:04:46.906Z,49.25
2022-12-19T05:07:22.309Z,49.40
2022-12-19T05:09:54.875Z,45.75
2022-12-19T05:12:24.607Z,39.35
2022-12-19T05:14:54.436Z,49.63
2022-12-19T05:17:24.300Z,46.47
2022-12-19T05:19:54.457Z,48.28
2022-12-19T05:22:29.688Z,41.90
2022-12-19T05:24:59.480Z,44.45
2022-12-19T05:27:29.224Z,44.85
2022-12-19T05:29:59.043Z,48.15
2022-12-19T05:32:28.878Z,46.20
2022-12-19T05:34:58.704Z,39.10
2022-12-19T05:37:31.135Z,43.28
2022-12-19T05:40:00.963Z,40.63
2022-12-19T05:42:30.738Z,40.88
2022-12-19T05:45:00.539Z,45.92
2022-12-19T05:47:30.375Z,44.67
2022-12-19T05:50:00.207Z,44.47
2022-12-19T05:52:32.618Z,38.60
2022-12-19T05:55:02.437Z,43.47
2022-12-19T05:57:32.430Z,41.28
2022-12-19T06:00:02.258Z,42.15
2022-12-19T06:02:35.572Z,41.15
2022-12-19T06:05:05.754Z,43.22
2022-12-19T06:07:38.578Z,43.97
2022-12-19T06:10:10.099Z,41.78
2022-12-19T06:12:40.089Z,38.28
2022-12-19T06:15:11.212Z,42.80
2022-12-19T06:17:40.997Z,41.50
2022-12-19T06:20:12.109Z,41.38
2022-12-19T06:22:44.506Z,45.40
2022-12-19T06:25:17.179Z,41.50
2022-12-19T06:27:47.372Z,39.47
2022-12-19T06:30:17.831Z,44.08
2022-12-19T06:32:47.592Z,42.63
2022-12-19T06:35:19.618Z,43.40
2022-12-19T06:37:59.339Z,49.70
2022-12-19T06:40:43.175Z,42.15
2022-12-19T06:43:12.950Z,43.08
2022-12-19T06:45:42.806Z,41.85
2022-12-19T06:48:12.681Z,44.97
2022-12-19T06:50:42.490Z,43.63
2022-12-19T06:53:14.865Z,48.00
2022-12-19T06:55:47.600Z,49.78
2022-12-19T06:58:21.387Z,48.95
2022-12-19T07:00:54.530Z,45.30
2022-12-19T07:03:30.393Z,46.80
2022-12-19T07:06:00.366Z,44.50
2022-12-19T07:08:32.968Z,42.30
2022-12-19T07:11:03.130Z,52.47
2022-12-19T07:13:33.095Z,41.42
2022-12-19T07:16:05.566Z,46.83
2022-12-19T07:18:38.555Z,45.50
2022-12-19T07:21:11.248Z,51.92
2022-12-19T07:23:44.283Z,50.08
2022-12-19T07:26:14.296Z,39.80
2022-12-19T07:28:44.648Z,47.78
2022-12-19T07:31:14.552Z,50.70
2022-12-19T07:33:47.050Z,43.08
2022-12-19T07:36:16.855Z,45.83
2022-12-19T07:38:49.827Z,45.83
2022-12-19T07:41:19.696Z,38.95
2022-12-19T07:43:49.473Z,44.92
2022-12-19T07:46:19.328Z,43.00
2022-12-19T07:48:51.620Z,43.85
2022-12-19T07:51:21.406Z,45.40
2022-12-19T07:53:53.823Z,44.65
2022-12-19T07:56:23.640Z,41.58
2022-12-19T07:58:53.749Z,43.00
2022-12-19T08:01:23.623Z,41.83
2022-12-19T08:03:58.246Z,48.58
2022-12-19T08:06:29.477Z,40.55
2022-12-19T08:09:01.788Z,40.47
2022-12-19T08:11:31.652Z,43.65
2022-12-19T08:14:01.765Z,43.13
2022-12-19T08:16:31.560Z,36.47
2022-12-19T08:19:01.381Z,44.83
2022-12-19T08:21:31.152Z,37.65
2022-12-19T08:24:03.751Z,40.05
2022-12-19T08:26:39.442Z,48.20
2022-12-19T08:29:10.598Z,42.85
2022-12-19T08:31:40.797Z,37.97
2022-12-19T08:34:10.639Z,40.38
2022-12-19T08:36:41.019Z,37.45
2022-12-19T08:39:14.005Z,32.08
2022-12-19T08:41:43.854Z,35.90
2022-12-19T08:44:14.595Z,37.10
2022-12-19T08:46:49.956Z,38.97
2022-12-19T08:49:20.889Z,44.78
2022-12-19T08:51:50.707Z,34.08
2022-12-19T08:54:23.128Z,37.80
2022-12-19T08:56:53.072Z,39.17
2022-12-19T08:59:30.965Z,35.55
2022-12-19T09:02:02.800Z,34.40
2022-12-19T09:05:58.786Z,35.15
2022-12-19T09:07:25.666Z,36.13
2022-12-19T09:10:00.321Z,37.88
2022-12-19T09:12:30.159Z,32.75
2022-12-19T09:14:59.942Z,33.47
2022-12-19T09:17:31.266Z,33.25
2022-12-19T09:20:01.584Z,36.08
2022-12-19T09:22:31.344Z,36.30
2022-12-19T09:25:03.734Z,44.17
2022-12-19T09:27:53.714Z,37.08
2022-12-19T09:30:25.277Z,35.65
2022-12-19T09:32:56.297Z,32.20
2022-12-19T09:35:30.302Z,33.58
2022-12-19T09:38:00.822Z,43.13
2022-12-19T09:40:45.625Z,34.38
2022-12-19T09:43:28.589Z,34.50
2022-12-19T09:46:05.398Z,36.75
2022-12-19T09:48:35.564Z,37.60
2022-12-19T09:51:12.172Z,39.40
2022-12-19T09:53:54.901Z,32.47
2022-12-19T09:56:34.042Z,37.45
2022-12-19T09:59:22.222Z,33.45
2022-12-19T10:02:00.103Z,31.92
2022-12-19T10:04:37.012Z,31.30
2022-12-19T10:07:35.428Z,34.33
2022-12-19T10:12:17.599Z,31.60
2022-12-19T10:13:13.840Z,34.10
2022-12-19T10:15:57.322Z,33.37
2022-12-19T10:18:42.630Z,31.50
2022-12-19T10:21:15.620Z,34.58
2022-12-19T10:24:03.623Z,30.42
2022-12-19T10:26:43.552Z,29.73
2022-12-19T10:29:41.343Z,33.25
2022-12-19T10:32:20.353Z,28.88
2022-12-19T10:34:53.487Z,31.23
2022-12-19T10:37:35.239Z,27.65
2022-12-19T10:40:27.918Z,28.95
2022-12-19T10:43:09.364Z,27.92
2022-12-19T10:45:48.363Z,28.02
2022-12-19T10:48:22.437Z,25.83
2022-12-19T10:51:06.098Z,23.30
2022-12-19T10:53:36.826Z,25.33
2022-12-19T10:56:16.764Z,28.45
2022-12-19T10:58:46.859Z,25.48
2022-12-19T11:01:27.247Z,26.13
2022-12-19T11:04:16.987Z,27.50
2022-12-19T11:06:52.908Z,27.13
2022-12-19T11:09:27.570Z,26.80
2022-12-19T11:16:30.331Z,26.75
2022-12-19T11:20:37.515Z,32.92
2022-12-19T11:24:23.519Z,29.58
2022-12-19T11:29:34.397Z,26.23
2022-12-19T11:29:40.715Z,25.58
2022-12-19T11:29:42.228Z,24.50
2022-12-19T11:32:45.488Z,28.17
2022-12-19T11:35:25.420Z,28.33
2022-12-19T11:38:09.130Z,29.27
2022-12-19T11:40:48.902Z,29.38
2022-12-19T11:43:45.394Z,31.40
2022-12-19T11:46:28.706Z,27.77
2022-12-19T11:49:03.375Z,27.92
2022-12-19T11:51:42.192Z,29.10
2022-12-19T11:54:17.953Z,27.80
2022-12-19T11:56:48.010Z,27.52
2022-12-19T11:59:21.947Z,27.88
2022-12-19T12:02:05.055Z,28.15
2022-12-19T12:05:07.888Z,27.15
2022-12-19T12:09:03.618Z,28.63
2022-12-19T12:14:22.676Z,33.03
2022-12-19T12:24:06.255Z,28.67
2022-12-19T12:30:59.089Z,28.08
2022-12-19T12:31:07.462Z,31.88
2022-12-19T12:31:13.967Z,29.52
2022-12-19T12:32:00.368Z,29.63
2022-12-19T12:32:05.400Z,33.08
2022-12-19T12:35:30.228Z,27.83
2022-12-19T12:35:51.345Z,29.80
2022-12-19T12:41:10.437Z,28.40
2022-12-19T12:43:54.896Z,27.30
2022-12-19T12:46:30.318Z,26.30
2022-12-19T12:49:05.416Z,27.52
2022-12-19T12:51:36.959Z,28.48
2022-12-19T12:54:14.438Z,27.60
2022-12-19T12:56:45.392Z,28.92
2022-12-19T12:59:28.201Z,31.30
2022-12-19T13:02:00.209Z,31.92
2022-12-19T13:04:34.228Z,29.98
2022-12-19T13:07:21.164Z,29.55
2022-12-19T13:10:07.276Z,28.48
2022-12-19T13:13:05.961Z,27.85
2022-12-19T13:15:42.055Z,29.10
2022-12-19T13:18:35.587Z,29.92
2022-12-19T13:21:08.216Z,28.10
2022-12-19T13:23:49.685Z,29.00
2022-12-19T13:26:47.391Z,27.67
2022-12-19T13:29:34.028Z,27.40
2022-12-19T13:32:13.436Z,29.75
2022-12-19T13:34:47.382Z,36.97
2022-12-19T13:39:56.638Z,28.67
2022-12-19T13:40:33.280Z,32.83
2022-12-19T13:43:30.897Z,30.00
2022-12-19T13:46:03.085Z,31.00
2022-12-19T13:48:37.146Z,34.30
2022-12-19T13:51:09.876Z,30.73
2022-12-19T13:53:40.755Z,30.90
2022-12-19T13:56:16.160Z,34.47
2022-12-19T13:58:52.161Z,31.80
2022-12-19T14:01:28.814Z,31.92
2022-12-19T14:04:02.628Z,36.92
2022-12-19T14:06:43.692Z,32.05
2022-12-19T14:11:27.871Z,32.47
2022-12-19T14:13:59.391Z,31.75
2022-12-19T14:15:35.178Z,34.65
2022-12-19T14:18:43.064Z,27.00
2022-12-19T14:22:04.607Z,31.92
2022-12-19T14:24:12.696Z,30.83
2022-12-19T14:28:19.303Z,31.75
2022-12-19T14:29:52.207Z,29.60
2022-12-19T14:33:39.439Z,28.77
2022-12-19T14:36:08.558Z,39.13
2022-12-19T14:39:27.648Z,33.50
2022-12-19T14:41:28.187Z,30.92
2022-12-19T14:52:08.329Z,34.00
2022-12-19T14:53:51.781Z,31.10
2022-12-19T14:54:03.000Z,30.75
2022-12-19T14:54:45.330Z,27.83
2022-12-19T14:56:13.564Z,29.73
2022-12-19T14:58:53.191Z,28.30
2022-12-19T15:01:27.470Z,30.38
2022-12-19T15:04:49.513Z,26.05
2022-12-19T15:07:10.098Z,30.67
2022-12-19T15:11:05.182Z,24.30
2022-12-19T15:14:51.745Z,28.02
2022-12-19T15:15:58.822Z,29.67
2022-12-19T15:18:30.738Z,29.65
2022-12-19T15:21:01.969Z,30.60
2022-12-19T15:23:34.903Z,30.88
2022-12-19T15:26:07.397Z,30.05
2022-12-19T15:28:43.142Z,35.45
2022-12-19T15:31:28.587Z,30.73
2022-12-19T15:36:48.654Z,32.70
2022-12-19T15:39:21.247Z,32.38
2022-12-19T15:41:53.584Z,34.08
2022-12-19T15:44:28.915Z,29.65
2022-12-19T15:46:59.061Z,28.63
2022-12-19T15:49:28.990Z,30.33
2022-12-19T15:51:58.734Z,25.38
2022-12-19T15:54:48.921Z,29.58
2022-12-19T15:57:27.266Z,30.02
2022-12-19T15:59:57.615Z,29.10
2022-12-19T16:03:12.840Z,30.00
2022-12-19T16:05:22.612Z,27.75
2022-12-19T16:07:52.504Z,29.73
2022-12-19T16:10:24.952Z,30.10
2022-12-19T16:12:57.820Z,28.40
2022-12-19T16:15:29.906Z,27.77
2022-12-19T16:18:04.988Z,29.42
2022-12-19T16:23:12.595Z,29.63
2022-12-19T16:25:43.610Z,31.92
2022-12-19T16:28:17.960Z,29.33
2022-12-19T16:30:46.745Z,28.40
2022-12-19T16:33:21.385Z,26.63
2022-12-19T16:36:06.993Z,28.35
2022-12-19T16:38:37.963Z,31.23
2022-12-19T16:43:47.512Z,32.00
2022-12-19T16:46:19.624Z,30.08
2022-12-19T16:48:48.627Z,31.73
2022-12-19T16:51:22.445Z,32.58
2022-12-19T16:53:52.348Z,27.98
2022-12-19T16:56:26.627Z,31.08
2022-12-19T16:58:57.868Z,29.63
2022-12-19T17:04:12.800Z,30.63
2022-12-19T17:06:42.565Z,27.65
2022-12-19T17:09:17.262Z,28.80
2022-12-19T17:11:50.052Z,31.20
2022-12-19T17:14:22.667Z,29.02
2022-12-19T17:16:55.152Z,29.60
2022-12-19T17:19:34.846Z,27.77
2022-12-19T17:22:04.937Z,28.63
2022-12-19T17:24:34.714Z,27.85
2022-12-19T17:27:04.547Z,31.95
2022-12-19T17:29:34.406Z,34.13
2022-12-19T17:32:06.841Z,33.55
2022-12-19T17:34:39.432Z,32.40
2022-12-19T17:37:09.280Z,33.15
2022-12-19T17:39:42.151Z,31.30
2022-12-19T17:42:19.068Z,32.20
2022-12-19T17:44:48.871Z,28.95
2022-12-19T17:47:21.740Z,30.83
2022-12-19T17:49:54.097Z,27.65
2022-12-19T17:52:23.971Z,30.27
2022-12-19T17:54:53.704Z,31.75
2022-12-19T17:57:23.549Z,28.02
2022-12-19T17:59:53.313Z,30.60
2022-12-19T18:02:31.446Z,25.23
2022-12-19T18:05:03.846Z,27.02
2022-12-19T18:07:33.836Z,27.00
2022-12-19T18:10:03.836Z,30.55
2022-12-19T18:12:33.662Z,27.45
2022-12-19T18:15:03.443Z,32.47
2022-12-19T18:17:33.499Z,31.52
2022-12-19T18:20:06.274Z,30.33
2022-12-19T18:22:36.255Z,25.90
2022-12-19T18:25:16.616Z,31.55
2022-12-19T18:27:46.915Z,26.52
2022-12-19T18:30:18.212Z,29.00
2022-12-19T18:32:51.541Z,27.55
2022-12-19T18:35:27.164Z,28.20
2022-12-19T18:38:06.663Z,27.85
2022-12-19T18:40:37.212Z,30.65
2022-12-19T18:43:07.206Z,29.55
2022-12-19T18:45:40.020Z,29.42
2022-12-19T18:48:14.513Z,29.30
2022-12-19T18:50:46.871Z,25.45
2022-12-19T18:53:21.572Z,27.50
2022-12-19T18:55:51.786Z,29.52
2022-12-19T18:58:22.143Z,29.13
2022-12-19T19:00:55.730Z,27.83
2022-12-19T19:03:33.961Z,28.42
2022-12-19T19:06:08.960Z,27.08
2022-12-19T19:08:38.814Z,29.00
2022-12-19T19:11:08.797Z,29.77
2022-12-19T19:13:38.578Z,27.38
2022-12-19T19:16:20.444Z,29.17
2022-12-19T19:18:54.211Z,28.25
2022-12-19T19:21:29.180Z,28.20
2022-12-19T19:24:08.853Z,26.92
2022-12-19T19:26:38.647Z,26.60
2022-12-19T19:29:08.579Z,28.38
2022-12-19T19:31:42.630Z,28.58
2022-12-19T19:34:16.019Z,29.60
2022-12-19T19:36:53.675Z,23.77
2022-12-19T19:39:23.808Z,27.95
2022-12-19T19:41:53.715Z,27.80
2022-12-19T19:44:23.618Z,29.58
2022-12-19T19:46:53.685Z,32.13
2022-12-19T19:49:23.652Z,26.92
2022-12-19T19:52:02.249Z,28.48
2022-12-19T19:54:33.134Z,27.13
2022-12-19T19:57:02.910Z,29.15
2022-12-19T19:59:33.657Z,27.27
2022-12-19T20:02:03.620Z,28.80
2022-12-19T20:04:33.586Z,24.02
2022-12-19T20:07:06.303Z,27.83
2022-12-19T20:09:36.173Z,25.85
2022-12-19T20:12:09.202Z,25.83
2022-12-19T20:14:38.988Z,26.10
2022-12-19T20:17:08.830Z,25.98
2022-12-19T20:19:38.654Z,27.13
2022-12-19T20:22:10.985Z,29.15
2022-12-19T20:24:40.853Z,26.38
2022-12-19T20:27:10.934Z,29.45
2022-12-19T20:29:40.939Z,30.13
2022-12-19T20:32:10.820Z,26.92
2022-12-19T20:34:40.655Z,33.03
2022-12-19T20:37:13.103Z,38.38
2022-12-19T20:39:42.882Z,27.77
2022-12-19T20:42:12.715Z,30.02
2022-12-19T20:44:42.514Z,29.65
2022-12-19T20:47:12.436Z,39.13
2022-12-19T20:49:42.239Z,30.35
2022-12-19T20:52:14.609Z,28.98
2022-12-19T20:54:44.467Z,28.38
2022-12-19T20:57:14.368Z,27.00
2022-12-19T20:59:44.179Z,27.42
2022-12-19T21:02:14.330Z,28.70
2022-12-19T21:04:44.663Z,29.02
2022-12-19T21:07:17.095Z,24.23
2022-12-19T21:09:50.131Z,23.85
2022-12-19T21:12:19.936Z,24.33
2022-12-19T21:14:49.804Z,25.90
2022-12-19T21:17:19.641Z,24.25
2022-12-19T21:19:49.449Z,22.25
2022-12-19T21:22:21.809Z,24.20
2022-12-19T21:24:51.787Z,25.05
2022-12-19T21:27:21.598Z,22.27
2022-12-19T21:29:51.445Z,22.85
2022-12-19T21:32:21.554Z,24.33
2022-12-19T21:34:51.359Z,24.13
2022-12-19T21:37:24.370Z,21.55
2022-12-19T21:39:54.193Z,24.35
2022-12-19T21:42:23.960Z,23.48
2022-12-19T21:44:53.762Z,24.35
2022-12-19T21:47:23.805Z,21.08
2022-12-19T21:49:53.715Z,20.70
2022-12-19T21:52:26.089Z,21.58
2022-12-19T21:54:55.958Z,19.92
2022-12-19T21:57:25.704Z,21.42
2022-12-19T21:59:55.474Z,20.20
2022-12-19T22:02:25.368Z,20.85
2022-12-19T22:04:55.432Z,23.50
2022-12-19T22:07:27.882Z,21.92
2022-12-19T22:09:57.895Z,19.90
2022-12-19T22:12:27.861Z,23.83
2022-12-19T22:14:57.738Z,17.88
2022-12-19T22:17:27.594Z,25.85
2022-12-19T22:19:57.471Z,18.80
2022-12-19T22:22:29.835Z,26.20
2022-12-19T22:24:59.746Z,24.00
2022-12-19T22:27:31.283Z,24.00
2022-12-19T22:30:10.365Z,25.30
2022-12-19T22:32:40.810Z,24.00
2022-12-19T22:35:11.267Z,23.77
2022-12-19T22:37:43.766Z,24.10
2022-12-19T22:40:15.291Z,26.50
2022-12-19T22:42:45.158Z,24.88
2022-12-19T22:45:15.193Z,23.45
2022-12-19T22:47:45.188Z,22.80
2022-12-19T22:50:15.061Z,24.80
2022-12-19T22:52:47.469Z,25.10
2022-12-19T22:55:17.418Z,23.67
2022-12-19T22:57:47.265Z,23.95
2022-12-19T23:00:18.028Z,24.25
2022-12-19T23:02:48.359Z,23.08
2022-12-19T23:05:18.474Z,24.05
2022-12-19T23:07:50.875Z,27.10
2022-12-19T23:10:20.854Z,23.83
2022-12-19T23:12:50.625Z,25.25
2022-12-19T23:15:20.477Z,25.35
2022-12-19T23:17:50.254Z,26.30
2022-12-19T23:20:20.147Z,25.35
2022-12-19T23:22:52.479Z,23.85
2022-12-19T23:25:22.357Z,22.25
2022-12-19T23:27:52.148Z,21.98
2022-12-19T23:30:21.928Z,23.98
2022-12-19T23:32:51.774Z,25.17
2022-12-19T23:35:21.532Z,25.42
2022-12-19T23:37:53.869Z,23.38
2022-12-19T23:40:23.746Z,24.63
2022-12-19T23:42:53.526Z,23.50
2022-12-19T23:45:23.468Z,21.85
2022-12-19T23:47:55.367Z,21.02
2022-12-19T23:50:25.198Z,23.70
2022-12-19T23:52:57.719Z,23.92
2022-12-19T23:55:27.592Z,22.70
2022-12-19T23:57:57.395Z,22.50
